createdAt,value
2018-12-20T00:00:45.230Z,2.90
2018-12-20T00:03:12.510Z,2.90
2018-12-20T00:05:39.881Z,3.00
2018-12-20T00:08:07.302Z,3.00
2018-12-20T00:10:34.632Z,3.00
2018-12-20T00:13:01.864Z,3.00
2018-12-20T00:15:29.165Z,3.00
2018-12-20T00:17:56.645Z,3.00
2018-12-20T00:20:24.206Z,3.00
2018-12-20T00:22:51.468Z,3.00
2018-12-20T00:25:18.948Z,3.00
2018-12-20T00:27:46.220Z,3.00
2018-12-20T00:30:13.587Z,3.00
2018-12-20T00:32:40.936Z,3.00
2018-12-20T00:35:08.403Z,3.00
2018-12-20T00:37:35.629Z,3.00
2018-12-20T00:40:06.603Z,3.00
2018-12-20T00:42:32.662Z,3.00
2018-12-20T00:45:00.054Z,3.00
2018-12-20T00:47:27.456Z,3.00
2018-12-20T00:49:54.825Z,3.00
2018-12-20T00:52:22.265Z,3.00
2018-12-20T00:54:49.534Z,3.00
2018-12-20T00:57:16.856Z,3.00
2018-12-20T00:59:44.108Z,3.00
2018-12-20T01:02:11.676Z,3.00
2018-12-20T01:04:39.089Z,3.00
2018-12-20T01:07:06.516Z,3.00
2018-12-20T01:09:33.924Z,3.00
2018-12-20T01:12:01.432Z,3.00
2018-12-20T01:14:28.860Z,3.00
2018-12-20T01:16:56.104Z,3.00
2018-12-20T01:19:23.582Z,3.00
2018-12-20T01:21:51.141Z,3.00
2018-12-20T01:24:18.391Z,3.00
2018-12-20T01:26:45.928Z,3.00
2018-12-20T01:29:13.542Z,3.00
2018-12-20T01:31:40.852Z,3.10
2018-12-20T01:34:08.201Z,3.10
2018-12-20T01:36:35.628Z,3.10
2018-12-20T01:39:05.113Z,3.10
2018-12-20T01:41:32.571Z,3.10
2018-12-20T01:44:00.020Z,3.10
2018-12-20T01:46:27.588Z,3.10
2018-12-20T01:48:54.871Z,3.10
2018-12-20T01:51:22.352Z,3.10
2018-12-20T01:53:49.753Z,3.10
2018-12-20T01:56:16.954Z,3.10
2018-12-20T01:58:44.300Z,3.10
2018-12-20T02:01:11.633Z,3.10
2018-12-20T02:03:38.979Z,3.10
2018-12-20T02:06:06.551Z,3.10
2018-12-20T02:08:34.074Z,3.10
2018-12-20T02:11:01.554Z,3.10
2018-12-20T02:13:28.999Z,3.10
2018-12-20T02:15:56.435Z,3.10
2018-12-20T02:18:23.696Z,3.10
2018-12-20T02:20:51.060Z,3.10
2018-12-20T02:23:18.492Z,3.10
2018-12-20T02:25:45.734Z,3.10
2018-12-20T02:28:13.153Z,3.10
2018-12-20T02:30:40.462Z,3.20
2018-12-20T02:33:07.811Z,3.20
2018-12-20T02:35:35.012Z,3.20
2018-12-20T02:38:02.432Z,3.20
2018-12-20T02:40:29.781Z,3.20
2018-12-20T02:42:57.006Z,3.20
2018-12-20T02:45:24.397Z,3.20
2018-12-20T02:47:52.004Z,3.20
2018-12-20T02:50:19.398Z,3.20
2018-12-20T02:52:47.336Z,3.20
2018-12-20T02:55:14.824Z,3.20
2018-12-20T02:57:42.228Z,3.20
2018-12-20T03:00:09.894Z,3.20
2018-12-20T03:02:37.324Z,3.20
2018-12-20T03:05:04.659Z,3.20
2018-12-20T03:07:31.978Z,3.20
2018-12-20T03:09:59.310Z,3.20
2018-12-20T03:12:26.786Z,3.20
2018-12-20T03:14:54.262Z,3.20
2018-12-20T03:17:21.892Z,3.20
2018-12-20T03:19:49.192Z,3.20
2018-12-20T03:22:16.449Z,3.20
2018-12-20T03:24:43.689Z,3.20
2018-12-20T03:27:11.011Z,3.20
2018-12-20T03:29:38.294Z,3.20
2018-12-20T03:32:05.626Z,3.20
2018-12-20T03:34:33.212Z,3.20
2018-12-20T03:37:00.633Z,3.20
2018-12-20T03:39:27.899Z,3.30
2018-12-20T03:41:55.100Z,3.30
2018-12-20T03:44:22.759Z,3.30
2018-12-20T03:46:50.125Z,3.30
2018-12-20T03:49:17.513Z,3.30
2018-12-20T03:51:45.064Z,3.30
2018-12-20T03:54:12.715Z,3.30
2018-12-20T03:56:40.211Z,3.30
2018-12-20T03:59:07.557Z,3.30
2018-12-20T04:01:34.762Z,3.30
2018-12-20T04:04:02.237Z,3.30
2018-12-20T04:06:29.570Z,3.30
2018-12-20T04:08:57.019Z,3.30
2018-12-20T04:11:24.410Z,3.30
2018-12-20T04:13:51.746Z,3.30
2018-12-20T04:16:19.334Z,3.30
2018-12-20T04:18:46.676Z,3.30
2018-12-20T04:21:14.183Z,3.30
2018-12-20T04:23:41.430Z,3.30
2018-12-20T04:26:08.896Z,3.30
2018-12-20T04:28:36.192Z,3.40
2018-12-20T04:31:03.798Z,3.40
2018-12-20T04:33:31.172Z,3.30
2018-12-20T04:35:58.501Z,3.40
2018-12-20T04:38:25.871Z,3.40
2018-12-20T04:40:53.304Z,3.40
2018-12-20T04:43:20.655Z,3.40
2018-12-20T04:45:48.077Z,3.30
2018-12-20T04:48:15.592Z,3.40
2018-12-20T04:50:43.377Z,3.40
2018-12-20T04:53:10.723Z,3.40
2018-12-20T04:55:38.109Z,3.40
2018-12-20T04:58:05.899Z,3.40
2018-12-20T05:00:33.656Z,3.40
2018-12-20T05:03:01.174Z,3.40
2018-12-20T05:05:28.677Z,3.40
2018-12-20T05:07:56.148Z,3.40
2018-12-20T05:10:23.606Z,3.40
2018-12-20T05:12:50.973Z,3.40
2018-12-20T05:15:18.350Z,3.40
2018-12-20T05:17:45.702Z,3.40
2018-12-20T05:20:12.961Z,3.40
2018-12-20T05:22:40.309Z,3.40
2018-12-20T05:25:07.735Z,3.40
2018-12-20T05:27:35.080Z,3.40
2018-12-20T05:30:02.607Z,3.40
2018-12-20T05:32:29.859Z,3.40
2018-12-20T05:34:57.239Z,3.40
2018-12-20T05:37:24.729Z,3.40
2018-12-20T05:39:52.235Z,3.40
2018-12-20T05:42:19.744Z,3.40
2018-12-20T05:44:47.704Z,3.40
2018-12-20T05:47:15.315Z,3.40
2018-12-20T05:49:42.760Z,3.40
2018-12-20T05:52:10.045Z,3.40
2018-12-20T05:54:37.408Z,3.40
2018-12-20T05:57:04.768Z,3.30
2018-12-20T05:59:31.969Z,3.30
2018-12-20T06:01:59.273Z,3.30
2018-12-20T06:04:26.744Z,3.30
2018-12-20T06:06:54.319Z,3.30
2018-12-20T06:09:21.691Z,3.30
2018-12-20T06:11:49.153Z,3.30
2018-12-20T06:14:16.432Z,3.30
2018-12-20T06:16:43.768Z,3.30
2018-12-20T06:19:11.215Z,3.30
2018-12-20T06:21:38.572Z,3.30
2018-12-20T06:24:06.160Z,3.30
2018-12-20T06:26:33.509Z,3.30
2018-12-20T06:29:00.700Z,3.30
2018-12-20T06:31:27.927Z,3.30
2018-12-20T06:33:55.309Z,3.30
2018-12-20T06:36:22.500Z,3.30
2018-12-20T06:38:49.698Z,3.30
2018-12-20T06:41:16.999Z,3.30
2018-12-20T06:43:44.352Z,3.30
2018-12-20T06:46:11.549Z,3.30
2018-12-20T06:48:38.900Z,3.30
2018-12-20T06:51:06.219Z,3.30
2018-12-20T06:53:33.450Z,3.30
2018-12-20T06:56:00.696Z,3.30
2018-12-20T06:58:28.096Z,3.30
2018-12-20T07:00:55.420Z,3.30
2018-12-20T07:03:22.693Z,3.30
2018-12-20T07:05:49.956Z,3.30
2018-12-20T07:08:17.426Z,3.40
2018-12-20T07:10:44.709Z,3.30
2018-12-20T07:13:11.993Z,3.40
2018-12-20T07:15:39.190Z,3.40
2018-12-20T07:18:06.438Z,3.40
2018-12-20T07:20:33.675Z,3.40
2018-12-20T07:23:00.885Z,3.40
2018-12-20T07:25:28.168Z,3.30
2018-12-20T07:27:55.347Z,3.40
2018-12-20T07:30:22.573Z,3.40
2018-12-20T07:32:49.831Z,3.40
2018-12-20T07:35:17.045Z,3.40
2018-12-20T07:37:44.369Z,3.40
2018-12-20T07:40:11.737Z,3.40
2018-12-20T07:42:38.961Z,3.40
2018-12-20T07:45:07.511Z,3.40
2018-12-20T07:47:34.783Z,3.40
2018-12-20T07:50:02.230Z,3.40
2018-12-20T07:52:29.445Z,3.40
2018-12-20T07:54:56.675Z,3.40
2018-12-20T07:57:24.923Z,3.40
2018-12-20T07:59:52.284Z,3.40
2018-12-20T08:02:19.686Z,3.40
2018-12-20T08:04:46.903Z,3.40
2018-12-20T08:07:14.134Z,3.40
2018-12-20T08:09:41.386Z,3.50
2018-12-20T08:12:08.608Z,3.40
2018-12-20T08:14:35.904Z,3.50
2018-12-20T08:17:03.265Z,3.50
2018-12-20T08:19:36.315Z,3.50
2018-12-20T08:21:59.763Z,3.50
2018-12-20T08:24:27.035Z,3.50
2018-12-20T08:26:54.345Z,3.50
2018-12-20T08:29:21.540Z,3.50
2018-12-20T08:31:48.789Z,3.50
2018-12-20T08:34:15.986Z,3.50
2018-12-20T08:36:43.199Z,3.50
2018-12-20T08:39:10.451Z,3.50
2018-12-20T08:41:37.663Z,3.50
2018-12-20T08:44:04.860Z,3.60
2018-12-20T08:46:32.145Z,3.60
2018-12-20T08:48:59.378Z,3.60
2018-12-20T08:51:26.679Z,3.60
2018-12-20T08:53:53.954Z,3.60
2018-12-20T08:56:21.253Z,3.60
2018-12-20T08:58:48.452Z,3.60
2018-12-20T09:01:15.705Z,3.70
2018-12-20T09:03:42.983Z,3.70
2018-12-20T09:06:10.221Z,3.70
2018-12-20T09:08:37.445Z,3.70
2018-12-20T09:11:04.645Z,3.70
2018-12-20T09:13:31.853Z,3.70
2018-12-20T09:15:59.102Z,3.70
2018-12-20T09:18:26.333Z,3.70
2018-12-20T09:20:53.560Z,3.70
2018-12-20T09:23:20.807Z,3.70
2018-12-20T09:25:48.014Z,3.80
2018-12-20T09:28:15.213Z,3.70
2018-12-20T09:30:42.454Z,3.80
2018-12-20T09:33:09.680Z,3.80
2018-12-20T09:35:36.880Z,3.80
2018-12-20T09:38:04.128Z,3.80
2018-12-20T09:40:31.389Z,3.80
2018-12-20T09:42:58.608Z,3.80
2018-12-20T09:45:25.881Z,3.80
2018-12-20T09:47:57.825Z,3.80
2018-12-20T09:50:25.263Z,3.80
2018-12-20T09:52:52.635Z,3.80
2018-12-20T09:55:20.194Z,3.80
2018-12-20T09:57:47.548Z,3.90
2018-12-20T10:00:14.832Z,3.90
2018-12-20T10:02:42.153Z,3.90
2018-12-20T10:05:09.380Z,3.90
2018-12-20T10:07:36.617Z,3.90
2018-12-20T10:10:04.137Z,3.90
2018-12-20T10:12:31.425Z,3.90
2018-12-20T10:14:58.783Z,3.90
2018-12-20T10:17:25.993Z,3.90
2018-12-20T10:19:53.188Z,4.00
2018-12-20T10:22:20.458Z,4.00
2018-12-20T10:24:47.677Z,4.00
2018-12-20T10:27:14.945Z,4.00
2018-12-20T10:29:42.316Z,4.00
2018-12-20T10:32:09.690Z,4.00
2018-12-20T10:34:37.067Z,4.00
2018-12-20T10:37:04.563Z,4.00
2018-12-20T10:39:31.790Z,4.00
2018-12-20T10:41:59.011Z,4.00
2018-12-20T10:44:26.281Z,4.00
2018-12-20T10:46:56.220Z,4.00
2018-12-20T10:49:23.429Z,4.00
2018-12-20T10:51:50.773Z,4.00
2018-12-20T10:54:17.963Z,4.00
2018-12-20T10:56:45.220Z,4.00
2018-12-20T10:59:12.691Z,4.00
2018-12-20T11:01:48.670Z,4.00
2018-12-20T11:04:21.971Z,4.00
2018-12-20T11:06:55.284Z,4.00
2018-12-20T11:09:28.321Z,4.00
2018-12-20T11:12:08.663Z,4.00
2018-12-20T11:14:36.482Z,4.00
2018-12-20T11:17:03.896Z,4.00
2018-12-20T11:19:31.116Z,4.00
2018-12-20T11:21:58.360Z,4.00
2018-12-20T11:24:25.553Z,4.00
2018-12-20T11:26:52.927Z,4.00
2018-12-20T11:29:20.210Z,4.00
2018-12-20T11:31:47.547Z,4.00
2018-12-20T11:34:14.853Z,4.00
2018-12-20T11:36:42.245Z,4.00
2018-12-20T11:39:09.433Z,4.00
2018-12-20T11:41:36.644Z,4.00
2018-12-20T11:44:04.007Z,4.00
2018-12-20T11:46:31.241Z,4.00
2018-12-20T11:48:58.446Z,4.00
2018-12-20T11:51:25.697Z,4.00
2018-12-20T11:53:53.029Z,4.00
2018-12-20T11:56:20.231Z,4.00
2018-12-20T11:58:47.502Z,4.10
2018-12-20T12:01:14.760Z,4.00
2018-12-20T12:03:42.006Z,4.00
2018-12-20T12:06:14.438Z,4.00
2018-12-20T12:08:41.673Z,4.00
2018-12-20T12:11:08.951Z,4.00
2018-12-20T12:13:36.179Z,4.10
2018-12-20T12:16:03.502Z,4.00
2018-12-20T12:18:30.904Z,4.10
2018-12-20T12:20:58.297Z,4.10
2018-12-20T12:23:25.603Z,4.10
2018-12-20T12:25:52.829Z,4.00
2018-12-20T12:28:20.112Z,4.10
2018-12-20T12:30:47.352Z,4.00
2018-12-20T12:33:14.609Z,4.10
2018-12-20T12:35:41.851Z,4.10
2018-12-20T12:38:09.054Z,4.10
2018-12-20T12:40:36.367Z,4.10
2018-12-20T12:43:03.714Z,4.10
2018-12-20T12:45:31.079Z,4.10
2018-12-20T12:48:03.792Z,4.10
2018-12-20T12:50:29.334Z,4.10
2018-12-20T12:52:56.520Z,4.10
2018-12-20T12:55:23.847Z,4.10
2018-12-20T12:57:51.109Z,4.10
2018-12-20T13:00:21.194Z,4.10
2018-12-20T13:02:48.512Z,4.10
2018-12-20T13:05:16.150Z,4.00
2018-12-20T13:07:43.370Z,4.00
2018-12-20T13:10:10.626Z,4.00
2018-12-20T13:12:38.014Z,4.00
2018-12-20T13:15:06.552Z,4.00
2018-12-20T13:17:33.727Z,4.00
2018-12-20T13:20:00.992Z,4.00
2018-12-20T13:22:28.337Z,4.00
2018-12-20T13:24:55.605Z,3.90
2018-12-20T13:27:22.868Z,3.90
2018-12-20T13:29:50.095Z,3.90
2018-12-20T13:32:17.374Z,3.90
2018-12-20T13:34:44.734Z,3.90
2018-12-20T13:37:15.840Z,3.80
2018-12-20T13:39:41.176Z,3.90
2018-12-20T13:42:08.418Z,3.90
2018-12-20T13:44:35.629Z,3.80
2018-12-20T13:47:03.020Z,3.80
2018-12-20T13:49:30.244Z,3.80
2018-12-20T13:51:57.528Z,3.80
2018-12-20T13:54:24.734Z,3.80
2018-12-20T13:56:51.961Z,3.80
2018-12-20T13:59:19.190Z,3.80
2018-12-20T14:01:46.391Z,3.80
2018-12-20T14:04:13.649Z,3.80
2018-12-20T14:06:41.001Z,3.80
2018-12-20T14:09:08.862Z,3.80
2018-12-20T14:11:36.777Z,3.80
2018-12-20T14:14:04.115Z,3.80
2018-12-20T14:16:31.375Z,3.80
2018-12-20T14:18:58.727Z,3.80
2018-12-20T14:21:25.925Z,3.80
2018-12-20T14:23:53.162Z,3.80
2018-12-20T14:26:20.400Z,3.80
2018-12-20T14:28:47.647Z,3.80
2018-12-20T14:31:14.984Z,3.80
2018-12-20T14:33:42.338Z,3.80
2018-12-20T14:36:09.653Z,3.80
2018-12-20T14:38:36.875Z,3.80
2018-12-20T14:41:04.117Z,3.80
2018-12-20T14:43:31.335Z,3.80
2018-12-20T14:45:58.540Z,3.70
2018-12-20T14:48:29.422Z,3.70
2018-12-20T14:50:56.740Z,3.70
2018-12-20T14:53:24.069Z,3.70
2018-12-20T14:55:51.383Z,3.70
2018-12-20T14:58:18.739Z,3.70
2018-12-20T15:00:46.116Z,3.70
2018-12-20T15:03:13.643Z,3.70
2018-12-20T15:05:40.876Z,3.70
2018-12-20T15:08:08.082Z,3.70
2018-12-20T15:10:35.317Z,3.70
2018-12-20T15:13:02.680Z,3.70
2018-12-20T15:15:29.945Z,3.70
2018-12-20T15:17:57.397Z,3.70
2018-12-20T15:20:24.626Z,3.70
2018-12-20T15:22:51.878Z,3.70
2018-12-20T15:25:19.209Z,3.70
2018-12-20T15:27:46.506Z,3.70
2018-12-20T15:30:13.792Z,3.70
2018-12-20T15:32:41.242Z,3.70
2018-12-20T15:35:08.677Z,3.70
2018-12-20T15:37:35.960Z,3.70
2018-12-20T15:40:04.578Z,3.70
2018-12-20T15:42:31.897Z,3.70
2018-12-20T15:44:59.303Z,3.70
2018-12-20T15:47:26.767Z,3.70
2018-12-20T15:49:54.000Z,3.70
2018-12-20T15:52:21.226Z,3.70
2018-12-20T15:54:48.496Z,3.70
2018-12-20T15:57:15.824Z,3.70
2018-12-20T15:59:43.046Z,3.70
2018-12-20T16:02:10.405Z,3.70
2018-12-20T16:04:37.624Z,3.70
2018-12-20T16:07:04.981Z,3.70
2018-12-20T16:09:32.285Z,3.70
2018-12-20T16:11:59.743Z,3.70
2018-12-20T16:14:27.210Z,3.70
2018-12-20T16:16:54.567Z,3.70
2018-12-20T16:19:21.861Z,3.70
2018-12-20T16:21:49.179Z,3.70
2018-12-20T16:24:16.425Z,3.70
2018-12-20T16:26:43.740Z,3.70
2018-12-20T16:29:11.097Z,3.70
2018-12-20T16:31:38.354Z,3.70
2018-12-20T16:34:05.580Z,3.70
2018-12-20T16:36:32.826Z,3.70
2018-12-20T16:39:00.177Z,3.70
2018-12-20T16:41:27.397Z,3.70
2018-12-20T16:43:54.620Z,3.60
2018-12-20T16:46:21.859Z,3.60
2018-12-20T16:48:49.190Z,3.60
2018-12-20T16:51:16.424Z,3.70
2018-12-20T16:53:43.779Z,3.70
2018-12-20T16:56:10.977Z,3.70
2018-12-20T16:58:38.204Z,3.70
2018-12-20T17:01:05.449Z,3.70
2018-12-20T17:03:32.656Z,3.70
2018-12-20T17:05:59.987Z,3.70
2018-12-20T17:08:27.381Z,3.70
2018-12-20T17:10:54.697Z,3.70
2018-12-20T17:13:22.017Z,3.70
2018-12-20T17:15:49.377Z,3.70
2018-12-20T17:18:16.600Z,3.70
2018-12-20T17:20:43.783Z,3.70
2018-12-20T17:23:11.064Z,3.70
2018-12-20T17:25:38.433Z,3.70
2018-12-20T17:28:06.195Z,3.70
2018-12-20T17:30:33.463Z,3.70
2018-12-20T17:33:00.709Z,3.70
2018-12-20T17:35:27.933Z,3.70
2018-12-20T17:37:55.179Z,3.70
2018-12-20T17:40:22.513Z,3.70
2018-12-20T17:42:49.737Z,3.70
2018-12-20T17:45:17.087Z,3.70
2018-12-20T17:47:44.572Z,3.70
2018-12-20T17:50:12.028Z,3.70
2018-12-20T17:52:39.283Z,3.70
2018-12-20T17:55:06.738Z,3.70
2018-12-20T17:57:33.965Z,3.70
2018-12-20T18:00:01.232Z,3.70
2018-12-20T18:02:28.552Z,3.70
2018-12-20T18:04:55.761Z,3.70
2018-12-20T18:07:23.037Z,3.70
2018-12-20T18:09:50.277Z,3.70
2018-12-20T18:12:17.485Z,3.70
2018-12-20T18:14:44.795Z,3.70
2018-12-20T18:17:12.036Z,3.70
2018-12-20T18:19:39.401Z,3.70
2018-12-20T18:22:06.745Z,3.70
2018-12-20T18:24:33.987Z,3.70
2018-12-20T18:27:01.225Z,3.70
2018-12-20T18:29:28.497Z,3.70
2018-12-20T18:31:55.723Z,3.70
2018-12-20T18:34:22.950Z,3.70
2018-12-20T18:36:50.331Z,3.70
2018-12-20T18:39:17.601Z,3.70
2018-12-20T18:41:44.835Z,3.70
2018-12-20T18:44:12.098Z,3.70
2018-12-20T18:46:39.362Z,3.70
2018-12-20T18:49:06.576Z,3.70
2018-12-20T18:51:33.823Z,3.70
2018-12-20T18:54:01.096Z,3.70
2018-12-20T18:56:28.370Z,3.70
2018-12-20T18:58:55.620Z,3.70
2018-12-20T19:01:22.833Z,3.70
2018-12-20T19:03:50.082Z,3.70
2018-12-20T19:06:17.326Z,3.70
2018-12-20T19:08:44.565Z,3.70
2018-12-20T19:11:11.908Z,3.70
2018-12-20T19:13:39.156Z,3.70
2018-12-20T19:16:06.399Z,3.70
2018-12-20T19:18:33.673Z,3.70
2018-12-20T19:21:00.945Z,3.70
2018-12-20T19:23:28.272Z,3.70
2018-12-20T19:25:55.612Z,3.70
2018-12-20T19:28:22.907Z,3.70
2018-12-20T19:30:50.141Z,3.70
2018-12-20T19:33:17.348Z,3.70
2018-12-20T19:35:44.580Z,3.70
2018-12-20T19:38:20.308Z,3.70
2018-12-20T19:40:41.122Z,3.70
2018-12-20T19:43:08.473Z,3.70
2018-12-20T19:45:35.693Z,3.70
2018-12-20T19:48:03.154Z,3.70
2018-12-20T19:50:30.429Z,3.70
2018-12-20T19:52:57.671Z,3.70
2018-12-20T19:55:25.028Z,3.70
2018-12-20T19:57:52.286Z,3.60
2018-12-20T20:00:20.881Z,3.60
2018-12-20T20:02:48.102Z,3.70
2018-12-20T20:05:15.344Z,3.70
2018-12-20T20:07:42.554Z,3.70
2018-12-20T20:10:10.883Z,3.70
2018-12-20T20:12:38.125Z,3.70
2018-12-20T20:15:16.035Z,3.70
2018-12-20T20:17:37.110Z,3.70
2018-12-20T20:20:13.550Z,3.70
2018-12-20T20:22:35.065Z,3.70
2018-12-20T20:25:02.891Z,3.70
2018-12-20T20:27:30.257Z,3.70
2018-12-20T20:29:57.641Z,3.70
2018-12-20T20:32:24.948Z,3.60
2018-12-20T20:34:52.187Z,3.70
2018-12-20T20:37:19.394Z,3.70
2018-12-20T20:39:46.592Z,3.70
2018-12-20T20:42:13.839Z,3.70
2018-12-20T20:44:41.348Z,3.70
2018-12-20T20:47:08.621Z,3.70
2018-12-20T20:49:35.885Z,3.70
2018-12-20T20:52:03.353Z,3.70
2018-12-20T20:54:30.560Z,3.70
2018-12-20T20:56:57.770Z,3.70
2018-12-20T20:59:25.082Z,3.70
2018-12-20T21:01:52.287Z,3.70
2018-12-20T21:04:19.660Z,3.70
2018-12-20T21:06:47.341Z,3.70
2018-12-20T21:09:14.779Z,3.70
2018-12-20T21:11:42.029Z,3.70
2018-12-20T21:14:09.285Z,3.70
2018-12-20T21:16:36.513Z,3.70
2018-12-20T21:19:03.800Z,3.70
2018-12-20T21:21:31.124Z,3.70
2018-12-20T21:23:58.411Z,3.70
2018-12-20T21:26:25.802Z,3.70
2018-12-20T21:28:53.029Z,3.70
2018-12-20T21:31:20.383Z,3.70
2018-12-20T21:33:47.668Z,3.70
2018-12-20T21:36:15.005Z,3.70
2018-12-20T21:38:42.245Z,3.70
2018-12-20T21:41:09.501Z,3.70
2018-12-20T21:43:36.769Z,3.70
2018-12-20T21:46:04.184Z,3.70
2018-12-20T21:48:31.526Z,3.70
2018-12-20T21:50:58.829Z,3.70
2018-12-20T21:53:26.197Z,3.70
2018-12-20T21:55:53.489Z,3.70
2018-12-20T21:58:20.706Z,3.70
2018-12-20T22:00:48.019Z,3.70
2018-12-20T22:03:15.299Z,3.70
2018-12-20T22:05:42.652Z,3.70
2018-12-20T22:08:09.893Z,3.70
2018-12-20T22:10:37.176Z,3.70
2018-12-20T22:13:04.516Z,3.70
2018-12-20T22:15:31.859Z,3.70
2018-12-20T22:17:59.223Z,3.70
2018-12-20T22:20:26.560Z,3.70
2018-12-20T22:22:53.800Z,3.70
2018-12-20T22:25:21.300Z,3.60
2018-12-20T22:27:48.674Z,3.60
2018-12-20T22:30:16.128Z,3.60
2018-12-20T22:32:43.440Z,3.60
2018-12-20T22:35:10.776Z,3.60
2018-12-20T22:37:38.026Z,3.60
2018-12-20T22:40:06.759Z,3.60
2018-12-20T22:42:34.097Z,3.60
2018-12-20T22:45:01.474Z,3.60
2018-12-20T22:47:28.761Z,3.60
2018-12-20T22:49:55.975Z,3.60
2018-12-20T22:52:23.187Z,3.60
2018-12-20T22:54:50.472Z,3.60
2018-12-20T22:57:17.694Z,3.50
2018-12-20T22:59:45.402Z,3.60
2018-12-20T23:02:18.025Z,3.60
2018-12-20T23:04:42.982Z,3.50
2018-12-20T23:07:10.186Z,3.50
2018-12-20T23:09:37.443Z,3.50
2018-12-20T23:12:04.753Z,3.50
2018-12-20T23:14:31.986Z,3.50
2018-12-20T23:16:59.514Z,3.50
2018-12-20T23:19:26.782Z,3.50
2018-12-20T23:21:54.025Z,3.50
2018-12-20T23:24:21.321Z,3.50
2018-12-20T23:26:48.606Z,3.50
2018-12-20T23:29:15.874Z,3.50
2018-12-20T23:31:43.227Z,3.50
2018-12-20T23:34:10.469Z,3.50
2018-12-20T23:36:37.904Z,3.50
2018-12-20T23:39:05.919Z,3.50
2018-12-20T23:41:33.153Z,3.50
2018-12-20T23:44:00.384Z,3.50
2018-12-20T23:46:27.815Z,3.50
2018-12-20T23:48:55.073Z,3.50
2018-12-20T23:51:22.294Z,3.50
2018-12-20T23:53:49.521Z,3.50
2018-12-20T23:56:16.752Z,3.50
2018-12-20T23:58:43.994Z,3.50
